Bloomfield, IA

9:00 PM CDT on March 26, 2015 (GMT -0500)
IEM Davis County / Bloomfield KCCI-TV | | Change Station
CLOSE
Current Station
Personal Weather Station
Location: Bloomfield, IA
Elevation: 853 ft
Nearby Weather Stations

Elev 853 ft 40.75 °N, 92.41 °W | Updated 288 days ago

Cloudy
Cloudy
38 °F
Feels Like 31 °F
N
9
Wind Variable Wind from North
Gusts mph

Today
High -- | Low -- °F
--% Chance of Precip.
Yesterday
High -- | Low -- °F
Precip. -- in
7:03 AM 7:27 PM
Waxing Crescent, 48% visible
Pressure 30.14 in
Visibility 10.0 miles
Clouds Mostly Cloudy 7000 ft
Overcast 8000 ft
Windchill 31 °F
Dew Point 24 °F
Humidity 56%
Rainfall in
Snow Depth Not available.
UV 0 out of 12
Pollen 5.90 out of 12
Air Quality Not available.
Flu Activity Not available.
METAR KOTM 270153Z AUTO 34011KT 10SM BKN070 OVC080 03/M04 A3011 RMK AO2 SLP204 T00331044

More Conditions Fewer Conditions

Pressure 30.14 in
Visibility 10.0 miles
Clouds Mostly Cloudy 7000 ft
Overcast 8000 ft
Windchill 31 °F
Dew Point 24 °F
Humidity 56%
Rainfall in
Snow Depth Not available.
UV 0 out of 12
Pollen 5.90 out of 12
Air Quality Not available.
Flu Activity Not available.
METAR KOTM 270153Z AUTO 34011KT 10SM BKN070 OVC080 03/M04 A3011 RMK AO2 SLP204 T00331044

More Conditions Fewer Conditions

10-Day Weather Forecast

Almanac

Astronomy

Mar. 26, 2015 Rise Set
Actual Time
Civil Twilight
Nautical Twilight
Astronomical Twilight
Moon
Length of Visible Light
Length of Day
Tomorrow will be .
, % of the Moon is Illuminated

Today's Extremes

State Highs State Lows

Community

WunderPhotos

Upload Photos

1,808,686 photos uploaded!

WunderBlogs® & News

Nearby

Air Quality

  Air Quality AQ Index Pollutant
Not available.

Snow Depth

Station Depth Elevation

Earthquake Activity

City Distance Mag. Time & Date
Minimum magnitude displayed is 2.5.

Coastal Water Temperatures

Place Temperature

Stations

Nearby Weather Stations

Station Location Temp. Windchill Dew Point Humidity Wind Precip. Elev Updated Type